Time;durP1;ratioP1;P1;durP2;ratioP2;P2;SDS_P1;SDS_P2;PMS_P1;PMS_P2;Temp;Humidity;BMP_temperature;BMP_pressure;BME280_temperature;BME280_humidity;BME280_pressure;Samples;Min_cycle;Max_cycle;Signal;HPM_P1;HPM_P2
2022/05/08 00:01:22;;;;;;;20.33;3.47;;;;;;;6.07;100.00;102474.47;5006637;28;20041;-76
2022/05/08 00:03:47;;;;;;;20.85;3.08;;;;;;;6.10;100.00;102466.47;5005567;28;20047;-75
2022/05/08 00:06:13;;;;;;;19.10;3.30;;;;;;;6.07;100.00;102471.03;5031222;28;20105;-78
2022/05/08 00:08:39;;;;;;;19.08;3.95;;;;;;;6.03;100.00;102478.97;5014614;28;20034;-75
2022/05/08 00:11:06;;;;;;;23.33;3.35;;;;;;;5.87;100.00;102475.38;5021265;28;20493;-76
2022/05/08 00:13:32;;;;;;;21.55;3.45;;;;;;;5.77;100.00;102472.38;5024408;28;20065;-78
2022/05/08 00:15:59;;;;;;;16.30;3.15;;;;;;;5.79;100.00;102477.50;5025054;28;20144;-77
2022/05/08 00:18:26;;;;;;;21.23;3.17;;;;;;;5.76;100.00;102473.28;5024202;28;20029;-77
2022/05/08 00:20:51;;;;;;;20.25;3.78;;;;;;;5.74;100.00;102463.88;5021909;28;20104;-77
2022/05/08 00:23:17;;;;;;;26.65;2.97;;;;;;;5.70;100.00;102465.75;5010668;28;20095;-77
2022/05/08 00:25:46;;;;;;;22.05;3.25;;;;;;;5.66;100.00;102459.03;5020954;28;20087;-77
2022/05/08 00:28:12;;;;;;;19.70;3.28;;;;;;;5.68;100.00;102466.75;5027031;28;20042;-76
2022/05/08 00:30:37;;;;;;;18.13;2.60;;;;;;;5.58;100.00;102461.16;5003587;28;20044;-75
2022/05/08 00:33:03;;;;;;;13.82;2.67;;;;;;;5.60;100.00;102469.72;5019888;28;20041;-76
2022/05/08 00:35:29;;;;;;;20.90;3.38;;;;;;;5.51;100.00;102465.78;5003262;28;20036;-77
2022/05/08 00:37:54;;;;;;;21.67;2.90;;;;;;;5.52;100.00;102475.28;5006666;28;20037;-75
2022/05/08 00:40:20;;;;;;;18.77;3.42;;;;;;;5.43;100.00;102467.91;5008007;28;20029;-76
2022/05/08 00:42:46;;;;;;;20.85;3.00;;;;;;;5.51;100.00;102465.78;5030987;28;20186;-75
2022/05/08 00:45:11;;;;;;;15.85;3.00;;;;;;;5.44;100.00;102467.84;5021528;28;20045;-76
2022/05/08 00:47:38;;;;;;;26.35;3.67;;;;;;;5.46;100.00;102476.44;5023455;28;20167;-75
2022/05/08 00:50:05;;;;;;;17.90;3.22;;;;;;;5.50;100.00;102477.13;5024406;28;20037;-77
2022/05/08 00:52:31;;;;;;;15.30;2.55;;;;;;;5.55;100.00;102469.94;5017475;28;20029;-76
2022/05/08 00:54:59;;;;;;;20.63;2.90;;;;;;;5.50;100.00;102465.84;5019373;28;20038;-76
2022/05/08 00:57:24;;;;;;;16.13;2.72;;;;;;;5.36;100.00;102466.50;5023759;28;20041;-76
2022/05/08 00:59:51;;;;;;;21.13;3.45;;;;;;;5.36;100.00;102471.69;5010231;28;20120;-78
2022/05/08 01:02:17;;;;;;;25.83;2.95;;;;;;;5.24;100.00;102465.31;5025547;28;20124;-77
2022/05/08 01:04:43;;;;;;;14.68;2.67;;;;;;;5.29;100.00;102460.72;5022751;28;20048;-76
2022/05/08 01:07:11;;;;;;;18.80;2.78;;;;;;;5.23;100.00;102464.44;5014773;28;20025;-76
2022/05/08 01:09:36;;;;;;;21.20;2.92;;;;;;;5.18;100.00;102468.16;5025084;28;20069;-78
2022/05/08 01:12:07;;;;;;;14.25;2.63;;;;;;;5.18;100.00;102474.22;4999544;28;20037;-80
2022/05/08 01:14:32;;;;;;;19.35;2.67;;;;;;;5.12;100.00;102466.69;5008766;28;20036;-78
2022/05/08 01:16:58;;;;;;;15.65;2.72;;;;;;;5.05;100.00;102466.13;4994814;28;20030;-76
2022/05/08 01:19:23;;;;;;;23.70;3.17;;;;;;;4.99;100.00;102463.81;5005507;28;20041;-77
2022/05/08 01:21:49;;;;;;;22.95;2.80;;;;;;;5.03;100.00;102461.91;5013134;28;21579;-76
2022/05/08 01:24:20;;;;;;;20.38;3.25;;;;;;;4.88;100.00;102466.88;5017446;28;20041;-78
2022/05/08 01:26:46;;;;;;;17.92;3.30;;;;;;;4.85;100.00;102463.56;5023655;28;20064;-75
2022/05/08 01:29:14;;;;;;;25.13;3.10;;;;;;;4.59;100.00;102449.94;5015133;28;20819;-74
2022/05/08 01:31:40;;;;;;;13.68;2.70;;;;;;;4.75;100.00;102470.91;5002818;28;20037;-77
2022/05/08 01:34:06;;;;;;;19.20;3.25;;;;;;;4.65;100.00;102467.88;5017003;28;20037;-77
2022/05/08 01:36:31;;;;;;;18.48;2.60;;;;;;;4.69;100.00;102471.19;5007460;28;20066;-77
2022/05/08 01:38:59;;;;;;;18.25;2.78;;;;;;;4.62;100.00;102464.56;5018892;28;20687;-76
2022/05/08 01:41:24;;;;;;;22.00;3.10;;;;;;;4.58;100.00;102465.63;5021664;28;20099;-78
2022/05/08 01:43:50;;;;;;;21.15;3.38;;;;;;;4.55;100.00;102470.94;5013483;28;20029;-77
2022/05/08 01:46:16;;;;;;;23.30;3.40;;;;;;;4.59;100.00;102462.09;5023325;28;20037;-76
2022/05/08 01:48:41;;;;;;;21.75;3.03;;;;;;;4.49;100.00;102466.84;5024366;28;20375;-79
2022/05/08 01:51:07;;;;;;;22.17;3.72;;;;;;;4.41;100.00;102481.91;5024514;28;20041;-76
2022/05/08 01:53:34;;;;;;;17.50;3.55;;;;;;;4.42;100.00;102483.59;5009181;28;20120;-76
2022/05/08 01:56:05;;;;;;;19.08;3.05;;;;;;;4.29;100.00;102475.44;5023939;28;20038;-75
2022/05/08 01:58:30;;;;;;;15.93;2.83;;;;;;;4.38;100.00;102476.84;5020793;28;20132;-77
2022/05/08 02:00:58;;;;;;;14.60;2.50;;;;;;;4.24;100.00;102467.03;5025917;28;20125;-76
2022/05/08 02:03:24;;;;;;;17.70;2.85;;;;;;;4.23;100.00;102478.31;5011552;28;20469;-76
2022/05/08 02:05:51;;;;;;;21.92;2.90;;;;;;;4.26;100.00;102475.59;5006019;28;20048;-77
2022/05/08 02:08:17;;;;;;;13.98;2.40;;;;;;;4.15;100.00;102478.63;5011255;28;20030;-77
2022/05/08 02:10:44;;;;;;;15.25;2.72;;;;;;;4.06;100.00;102484.19;5011689;28;20099;-77
2022/05/08 02:13:10;;;;;;;14.27;2.92;;;;;;;4.09;100.00;102481.47;5024948;28;20491;-77
2022/05/08 02:15:37;;;;;;;20.88;3.45;;;;;;;4.25;100.00;102473.88;5013087;28;20034;-76
2022/05/08 02:18:08;;;;;;;14.20;2.78;;;;;;;4.05;100.00;102485.06;5016839;28;20038;-77
2022/05/08 02:20:36;;;;;;;18.92;3.08;;;;;;;3.96;100.00;102475.91;4993055;28;20482;-76
2022/05/08 02:23:02;;;;;;;18.05;3.25;;;;;;;3.97;100.00;102482.78;5012016;28;20133;-77
2022/05/08 02:25:30;;;;;;;27.33;3.90;;;;;;;3.88;100.00;102484.00;5028663;28;20056;-76
2022/05/08 02:27:56;;;;;;;18.65;3.22;;;;;;;3.88;100.00;102480.56;5028152;28;20446;-74
2022/05/08 02:30:23;;;;;;;24.08;3.45;;;;;;;3.91;100.00;102467.47;5022054;28;20200;-75
2022/05/08 02:32:51;;;;;;;24.88;3.17;;;;;;;3.82;100.00;102471.25;5007769;28;20049;-76
2022/05/08 02:35:20;;;;;;;19.52;3.08;;;;;;;3.95;100.00;102475.97;5009980;28;20025;-76
2022/05/08 02:37:48;;;;;;;18.65;3.10;;;;;;;3.86;100.00;102485.84;5007403;28;20434;-76
2022/05/08 02:40:14;;;;;;;20.45;3.70;;;;;;;3.83;100.00;102483.34;5055791;28;20091;-79
2022/05/08 02:42:40;;;;;;;21.23;3.00;;;;;;;3.80;100.00;102485.22;5022358;28;20494;-76
2022/05/08 02:45:10;;;;;;;20.52;3.80;;;;;;;3.85;100.00;102486.72;5008627;28;20049;-74
2022/05/08 02:47:39;;;;;;;17.97;3.60;;;;;;;3.73;100.00;102484.63;5024300;28;20040;-76
2022/05/08 02:50:06;;;;;;;22.30;3.42;;;;;;;3.71;100.00;102481.22;5009339;28;20112;-76
2022/05/08 02:52:32;;;;;;;12.80;3.25;;;;;;;3.64;100.00;102483.22;5029939;28;20052;-78
2022/05/08 02:58:32;;;;;;;17.50;3.10;;;;;;;3.80;100.00;102483.44;5008218;28;20080;-77
2022/05/08 03:00:39;;;;;;;18.95;3.92;;;;;;;3.70;100.00;102476.94;5022054;28;20073;-75
2022/05/08 03:03:06;;;;;;;16.52;3.25;;;;;;;3.72;100.00;102484.66;5015393;28;20482;-76
2022/05/08 03:05:32;;;;;;;16.45;3.05;;;;;;;3.66;100.00;102470.19;5026446;28;20045;-76
2022/05/08 03:07:58;;;;;;;25.98;3.42;;;;;;;3.61;100.00;102479.88;5026847;28;20033;-76
2022/05/08 03:10:23;;;;;;;16.50;3.05;;;;;;;3.57;100.00;102484.34;5019284;28;20037;-77
2022/05/08 03:12:49;;;;;;;17.02;2.80;;;;;;;3.50;100.00;102488.06;5021119;28;20037;-78
2022/05/08 03:15:16;;;;;;;18.15;3.63;;;;;;;3.48;100.00;102487.28;5008395;28;20051;-77
2022/05/08 03:17:41;;;;;;;20.55;3.10;;;;;;;3.47;100.00;102481.25;5004613;28;20041;-78
2022/05/08 03:20:08;;;;;;;18.80;3.28;;;;;;;3.51;100.00;102482.00;5008185;28;20045;-77
2022/05/08 03:22:33;;;;;;;22.67;3.70;;;;;;;3.46;100.00;102489.94;5009417;28;20574;-75
2022/05/08 03:24:59;;;;;;;21.83;3.08;;;;;;;3.39;100.00;102488.50;5025118;28;20187;-78
2022/05/08 03:27:25;;;;;;;17.08;3.47;;;;;;;3.37;100.00;102484.25;5006364;28;20120;-77
2022/05/08 03:29:50;;;;;;;14.77;3.10;;;;;;;3.35;100.00;102492.06;5007039;28;20033;-77
2022/05/08 03:32:16;;;;;;;22.80;3.83;;;;;;;3.39;100.00;102491.09;5023693;28;20163;-76
2022/05/08 03:34:42;;;;;;;19.77;3.15;;;;;;;3.34;100.00;102497.34;5017465;28;20470;-76
2022/05/08 03:37:07;;;;;;;21.58;4.35;;;;;;;3.35;100.00;102496.44;5033868;28;20041;-76
2022/05/08 03:39:33;;;;;;;24.02;4.47;;;;;;;3.42;100.00;102493.53;5008072;28;20129;-78
2022/05/08 03:41:59;;;;;;;16.27;3.53;;;;;;;3.33;100.00;102483.50;5002401;28;20034;-76
2022/05/08 03:44:24;;;;;;;18.45;3.95;;;;;;;3.49;100.00;102500.19;5017483;28;20041;-75
2022/05/08 03:46:50;;;;;;;16.08;3.83;;;;;;;3.42;100.00;102488.34;5016710;28;20037;-76
2022/05/08 03:49:15;;;;;;;15.93;3.58;;;;;;;3.41;100.00;102497.06;5010168;28;20037;-77
2022/05/08 03:51:41;;;;;;;15.90;3.65;;;;;;;3.57;100.00;102488.69;5028382;28;20048;-77
2022/05/08 03:54:09;;;;;;;26.73;4.07;;;;;;;3.44;100.00;102491.75;5023589;28;20107;-75
2022/05/08 03:56:35;;;;;;;21.50;3.90;;;;;;;3.39;100.00;102496.28;5012325;28;20033;-75
2022/05/08 03:59:01;;;;;;;21.90;4.13;;;;;;;3.29;100.00;102492.31;5008497;28;20573;-78
2022/05/08 04:01:26;;;;;;;19.77;3.75;;;;;;;3.34;100.00;102490.41;4984556;28;20034;-76
2022/05/08 04:03:52;;;;;;;22.40;3.65;;;;;;;3.54;100.00;102499.19;5020722;28;20459;-77
2022/05/08 04:06:18;;;;;;;19.50;3.40;;;;;;;3.49;100.00;102502.81;5010014;28;20836;-76
2022/05/08 04:08:44;;;;;;;18.20;3.60;;;;;;;3.57;100.00;102507.69;5007472;28;20030;-77
2022/05/08 04:11:10;;;;;;;18.58;3.95;;;;;;;3.40;100.00;102502.31;5025883;28;20121;-79
2022/05/08 04:13:36;;;;;;;18.23;3.65;;;;;;;3.38;100.00;102497.16;5017501;28;20037;-75
2022/05/08 04:16:16;;;;;;;18.70;4.07;;;;;;;3.42;100.00;102501.34;5022985;28;20030;-76
2022/05/08 04:18:43;;;;;;;18.73;3.92;;;;;;;3.61;100.00;102504.06;5022210;28;20037;-75
2022/05/08 04:21:09;;;;;;;15.52;3.58;;;;;;;3.56;100.00;102503.44;5024225;28;20029;-75
2022/05/08 04:26:19;;;;;;;24.25;4.28;;;;;;;3.80;100.00;102505.97;5017231;28;20029;-76
2022/05/08 04:28:45;;;;;;;19.35;3.90;;;;;;;3.79;100.00;102505.13;5008341;28;20064;-76
2022/05/08 04:31:10;;;;;;;18.42;3.63;;;;;;;3.85;100.00;102506.66;5029086;28;20430;-78
2022/05/08 04:33:36;;;;;;;17.10;3.50;;;;;;;3.90;100.00;102504.72;5008422;28;20116;-76
2022/05/08 04:36:02;;;;;;;22.20;3.70;;;;;;;4.01;100.00;102505.16;4992668;28;20069;-73
2022/05/08 04:38:27;;;;;;;19.40;4.43;;;;;;;4.16;100.00;102515.81;5025832;28;20151;-76
2022/05/08 04:40:53;;;;;;;23.20;3.90;;;;;;;4.29;100.00;102519.59;5024303;28;20026;-77
2022/05/08 04:43:19;;;;;;;21.23;4.05;;;;;;;4.38;100.00;102519.25;5013735;28;20041;-76
2022/05/08 04:45:44;;;;;;;21.33;3.65;;;;;;;4.67;100.00;102522.38;5027689;28;20040;-76
2022/05/08 04:48:10;;;;;;;20.85;3.75;;;;;;;4.70;100.00;102513.63;5018951;28;20061;-76
2022/05/08 04:50:36;;;;;;;15.70;3.22;;;;;;;4.74;100.00;102522.97;4996097;28;20867;-76
2022/05/08 04:53:02;;;;;;;23.75;4.03;;;;;;;4.76;100.00;102524.59;5026566;28;20045;-77
2022/05/08 04:55:27;;;;;;;18.90;4.43;;;;;;;4.90;100.00;102517.94;5026591;28;20632;-77
2022/05/08 04:57:54;;;;;;;14.70;3.45;;;;;;;5.12;100.00;102528.28;5008414;28;20026;-78
2022/05/08 05:00:21;;;;;;;19.50;2.63;;;;;;;5.18;100.00;102530.59;5022123;28;20041;-77
2022/05/08 05:02:47;;;;;;;21.40;3.45;;;;;;;5.47;100.00;102535.34;5005854;28;20056;-78
2022/05/08 05:05:12;;;;;;;19.75;3.67;;;;;;;5.63;100.00;102535.53;5023288;28;20033;-76
2022/05/08 05:07:40;;;;;;;19.90;3.38;;;;;;;5.77;100.00;102547.06;5026765;28;20057;-77
2022/05/08 05:10:08;;;;;;;18.50;2.95;;;;;;;5.77;100.00;102542.69;5020361;28;20029;-78
2022/05/08 05:12:36;;;;;;;17.77;3.10;;;;;;;5.94;100.00;102530.63;5014578;28;20037;-78
2022/05/08 05:15:03;;;;;;;22.75;3.47;;;;;;;6.07;100.00;102531.78;5017830;28;20053;-77
2022/05/08 05:17:29;;;;;;;19.50;3.60;;;;;;;6.23;100.00;102539.69;5010424;28;20518;-76
2022/05/08 05:19:55;;;;;;;18.38;2.83;;;;;;;6.29;100.00;102539.41;5004529;28;20038;-77
2022/05/08 05:22:24;;;;;;;19.55;3.22;;;;;;;6.51;100.00;102543.56;5017478;28;20034;-78
2022/05/08 05:24:50;;;;;;;24.13;3.60;;;;;;;6.52;100.00;102530.44;5013066;28;20032;-77
2022/05/08 05:27:15;;;;;;;22.17;3.00;;;;;;;6.56;100.00;102539.81;5020589;28;20081;-79
2022/05/08 05:29:41;;;;;;;16.83;2.95;;;;;;;6.62;100.00;102549.09;5009613;28;20105;-78
2022/05/08 05:32:07;;;;;;;28.30;3.95;;;;;;;6.71;100.00;102559.06;5004872;28;20038;-76
2022/05/08 05:34:33;;;;;;;23.15;3.25;;;;;;;6.85;100.00;102555.75;5006686;28;20052;-76
2022/05/08 05:36:59;;;;;;;16.95;3.20;;;;;;;6.85;100.00;102560.97;5024652;28;20037;-76
2022/05/08 05:39:24;;;;;;;14.10;2.70;;;;;;;6.75;100.00;102549.31;5015871;28;20030;-77
2022/05/08 05:41:50;;;;;;;16.70;3.00;;;;;;;6.93;100.00;102556.22;5018851;28;20045;-77
2022/05/08 05:44:16;;;;;;;21.92;2.67;;;;;;;7.04;100.00;102566.09;5020017;28;20034;-78
2022/05/08 05:49:27;;;;;;;14.95;2.83;;;;;;;7.24;100.00;102564.22;5029170;28;20095;-79
2022/05/08 05:51:54;;;;;;;26.23;3.13;;;;;;;7.37;100.00;102579.16;5007956;28;20044;-76
2022/05/08 05:54:22;;;;;;;21.67;3.15;;;;;;;7.48;100.00;102585.56;5025916;28;20045;-77
2022/05/08 05:56:48;;;;;;;18.83;2.92;;;;;;;7.59;100.00;102586.69;5023682;28;20044;-77
2022/05/08 05:59:14;;;;;;;19.23;2.92;;;;;;;7.67;100.00;102577.63;5011792;28;20179;-79
2022/05/08 06:01:39;;;;;;;20.63;2.80;;;;;;;7.97;100.00;102594.22;5026591;28;20116;-76
2022/05/08 06:04:05;;;;;;;20.25;2.90;;;;;;;8.04;99.37;102580.81;5026485;28;20041;-78
2022/05/08 06:06:31;;;;;;;21.60;2.88;;;;;;;7.97;97.89;102588.16;5007185;28;20038;-77
2022/05/08 06:08:56;;;;;;;16.52;2.50;;;;;;;7.96;98.18;102596.91;5020214;28;20531;-77
2022/05/08 06:11:22;;;;;;;20.48;3.03;;;;;;;7.91;96.91;102596.31;5020973;28;20124;-78
2022/05/08 06:13:48;;;;;;;17.00;3.10;;;;;;;7.78;98.12;102602.22;5027352;28;20676;-77
2022/05/08 06:16:14;;;;;;;19.75;3.03;;;;;;;7.91;97.65;102598.94;5006013;28;20053;-78
2022/05/08 06:18:39;;;;;;;30.90;2.78;;;;;;;7.98;99.88;102595.06;5017057;28;20491;-76
2022/05/08 06:21:05;;;;;;;17.95;2.60;;;;;;;8.10;96.82;102604.00;5025177;28;20057;-77
2022/05/08 06:23:32;;;;;;;19.55;2.78;;;;;;;8.07;96.87;102599.78;5024170;28;20483;-76
2022/05/08 06:26:00;;;;;;;11.43;2.50;;;;;;;8.08;96.43;102595.41;5007495;28;20052;-76
2022/05/08 06:28:26;;;;;;;16.40;2.50;;;;;;;8.30;97.90;102603.72;5028447;28;20084;-74
2022/05/08 06:30:51;;;;;;;20.90;2.70;;;;;;;8.36;96.09;102603.41;5008000;28;20558;-76
2022/05/08 06:33:18;;;;;;;21.23;3.05;;;;;;;8.42;96.46;102599.63;5019717;28;20029;-78
2022/05/08 06:35:43;;;;;;;26.00;3.65;;;;;;;8.50;95.06;102604.44;5022437;28;20076;-76
2022/05/08 06:38:10;;;;;;;28.27;3.10;;;;;;;8.84;94.82;102599.88;5027031;28;20065;-75
2022/05/08 06:40:36;;;;;;;16.45;2.80;;;;;;;8.87;92.90;102604.91;5024085;28;20033;-77
2022/05/08 06:43:03;;;;;;;20.52;3.53;;;;;;;8.79;93.13;102607.13;5021432;28;20069;-77
2022/05/08 06:45:29;;;;;;;17.35;3.13;;;;;;;9.04;93.34;102602.16;5021028;28;20057;-77
2022/05/08 06:47:55;;;;;;;21.30;3.10;;;;;;;8.94;91.32;102595.75;5034912;28;20038;-77
2022/05/08 06:50:22;;;;;;;18.50;3.13;;;;;;;8.87;91.91;102612.75;5017723;28;21142;-77
2022/05/08 06:52:48;;;;;;;23.92;3.47;;;;;;;8.96;90.18;102612.22;5019773;28;20030;-77
2022/05/08 06:55:13;;;;;;;23.45;2.85;;;;;;;9.13;89.07;102606.81;5000197;28;20048;-78
2022/05/08 06:57:39;;;;;;;22.63;2.92;;;;;;;9.30;89.07;102610.22;5015003;28;20136;-78
2022/05/08 07:02:50;;;;;;;21.02;3.00;;;;;;;9.60;87.29;102630.25;5013806;28;20037;-79
2022/05/08 07:05:16;;;;;;;20.55;2.92;;;;;;;9.43;89.25;102618.16;5022291;28;20406;-80
2022/05/08 07:07:42;;;;;;;22.45;3.15;;;;;;;9.58;88.56;102627.72;5027512;28;20038;-76
2022/05/08 07:10:08;;;;;;;19.33;3.20;;;;;;;9.89;86.92;102633.69;5026699;28;20375;-75
2022/05/08 07:12:37;;;;;;;17.60;2.78;;;;;;;9.88;85.01;102622.34;5010848;28;20033;-78
2022/05/08 07:15:04;;;;;;;16.67;2.88;;;;;;;10.21;83.03;102639.53;5022704;28;20037;-76
2022/05/08 07:17:30;;;;;;;17.48;2.58;;;;;;;10.00;81.38;102639.09;5024399;28;20127;-76
2022/05/08 07:19:56;;;;;;;16.70;3.13;;;;;;;10.08;82.74;102636.84;5012904;28;20033;-78
2022/05/08 07:22:22;;;;;;;20.45;2.75;;;;;;;10.19;82.33;102641.41;5022308;28;20038;-75
2022/05/08 07:24:48;;;;;;;21.13;2.90;;;;;;;10.43;83.05;102641.63;5006705;28;20038;-77
2022/05/08 07:27:14;;;;;;;18.92;3.55;;;;;;;10.38;79.23;102632.38;5021684;28;20046;-76
2022/05/08 07:29:44;;;;;;;23.13;3.45;;;;;;;10.24;79.25;102639.31;5019714;28;20486;-78
2022/05/08 07:32:10;;;;;;;26.50;3.35;;;;;;;10.02;81.32;102637.22;5025747;28;20068;-78
2022/05/08 07:37:23;;;;;;;17.13;2.60;;;;;;;10.11;80.05;102636.66;5021988;28;20099;-77
2022/05/08 07:39:49;;;;;;;17.10;2.28;;;;;;;10.13;78.85;102634.78;5028511;28;20037;-77
2022/05/08 07:42:15;;;;;;;14.18;2.75;;;;;;;10.44;79.83;102632.84;5001405;28;20107;-76
2022/05/08 07:44:40;;;;;;;11.57;2.88;;;;;;;10.62;78.27;102638.66;5021966;28;20521;-76
2022/05/08 07:47:06;;;;;;;20.67;3.00;;;;;;;10.97;78.86;102648.63;5017364;28;20128;-75
2022/05/08 07:49:31;;;;;;;17.83;2.97;;;;;;;11.26;75.96;102651.06;5021569;28;20653;-77
2022/05/08 07:51:57;;;;;;;25.77;3.40;;;;;;;11.22;74.22;102639.91;5025591;28;20048;-79
2022/05/08 07:54:22;;;;;;;16.27;3.03;;;;;;;11.06;73.19;102657.66;5026823;28;20099;-76
2022/05/08 07:56:48;;;;;;;14.75;2.75;;;;;;;10.96;74.75;102646.09;5004008;28;20029;-79
2022/05/08 07:59:14;;;;;;;17.23;2.92;;;;;;;11.08;74.09;102640.03;4993990;28;20030;-76
2022/05/08 08:01:40;;;;;;;20.08;3.00;;;;;;;11.30;73.62;102645.50;5011168;28;20087;-78
2022/05/08 08:04:08;;;;;;;22.15;3.10;;;;;;;11.61;75.35;102635.50;5023410;28;20474;-77
2022/05/08 08:06:34;;;;;;;16.98;2.55;;;;;;;11.79;68.36;102651.78;5016275;28;20045;-76
2022/05/08 08:09:00;;;;;;;17.25;2.90;;;;;;;11.85;68.62;102646.09;4993908;28;20045;-81
2022/05/08 08:11:26;;;;;;;18.70;3.17;;;;;;;11.90;66.48;102648.41;4995080;28;20034;-78
2022/05/08 08:13:52;;;;;;;12.07;2.67;;;;;;;12.12;66.98;102654.78;5007476;28;20286;-79
2022/05/08 08:16:17;;;;;;;18.90;2.60;;;;;;;12.12;65.48;102655.63;5004183;28;20022;-76
2022/05/08 08:18:44;;;;;;;14.10;2.60;;;;;;;11.94;64.30;102649.03;5008728;28;20097;-79
2022/05/08 08:21:10;;;;;;;13.43;2.50;;;;;;;12.04;67.84;102642.19;5007744;28;20040;-77
2022/05/08 08:23:36;;;;;;;17.25;2.45;;;;;;;11.96;65.56;102655.88;5007154;28;20419;-76
2022/05/08 08:26:02;;;;;;;19.48;3.10;;;;;;;11.98;66.57;102659.25;5008401;28;20101;-77
2022/05/08 08:28:28;;;;;;;14.45;2.47;;;;;;;11.97;65.96;102659.34;4995140;28;20097;-76
2022/05/08 08:30:53;;;;;;;16.55;2.63;;;;;;;12.51;67.64;102656.31;5009822;28;20033;-77
2022/05/08 08:33:19;;;;;;;14.95;2.90;;;;;;;12.68;62.79;102667.38;5006809;28;20057;-76
2022/05/08 08:35:46;;;;;;;17.52;2.83;;;;;;;12.61;64.37;102662.56;5005715;28;20034;-78
2022/05/08 08:38:12;;;;;;;16.33;3.17;;;;;;;12.37;64.31;102667.84;5006322;28;20041;-76
2022/05/08 08:40:42;;;;;;;15.68;2.58;;;;;;;12.36;62.83;102658.28;4988713;28;20038;-78
2022/05/08 08:43:11;;;;;;;16.25;2.78;;;;;;;12.61;64.18;102662.56;4969613;28;20038;-77
2022/05/08 08:48:27;;;;;;;16.02;2.75;;;;;;;13.06;62.44;102661.91;5002379;28;20034;-78
2022/05/08 08:50:54;;;;;;;17.83;2.97;;;;;;;13.34;62.90;102668.56;5006899;28;20089;-76
2022/05/08 08:53:20;;;;;;;12.70;2.42;;;;;;;13.50;61.01;102659.47;4979963;28;20475;-78
2022/05/08 08:55:52;;;;;;;15.43;2.60;;;;;;;13.22;58.91;102659.78;4989846;28;20034;-76
2022/05/08 08:58:18;;;;;;;20.38;2.80;;;;;;;13.13;59.05;102670.16;5004862;28;20026;-78
2022/05/08 09:00:46;;;;;;;20.55;3.08;;;;;;;12.95;60.89;102654.78;5004940;28;20188;-77
2022/05/08 09:03:17;;;;;;;16.33;3.15;;;;;;;13.25;60.71;102667.44;5006761;28;20508;-79
2022/05/08 09:05:44;;;;;;;13.95;2.60;;;;;;;13.31;61.33;102671.44;5008989;28;20055;-79
2022/05/08 09:08:24;;;;;;;14.30;2.72;;;;;;;13.35;58.16;102666.75;4991523;28;20210;-77
2022/05/08 09:10:50;;;;;;;14.02;2.80;;;;;;;13.42;59.48;102673.25;4995946;28;20030;-76
2022/05/08 09:13:18;;;;;;;19.98;3.15;;;;;;;13.46;59.96;102669.41;5011187;28;20044;-79
2022/05/08 09:15:44;;;;;;;14.00;2.60;;;;;;;13.60;58.22;102678.91;4995585;28;20183;-79
2022/05/08 09:18:12;;;;;;;15.65;3.13;;;;;;;13.44;58.57;102674.81;5010125;28;20112;-79
2022/05/08 09:20:43;;;;;;;18.65;2.90;;;;;;;13.69;59.17;102669.44;4980436;28;20195;-78
2022/05/08 09:23:15;;;;;;;20.15;3.35;;;;;;;13.69;60.76;102678.16;5008308;28;20400;-78
2022/05/08 09:25:50;;;;;;;17.08;3.10;;;;;;;13.96;57.46;102684.91;4993392;28;20119;-77
2022/05/08 09:28:29;;;;;;;11.73;3.00;;;;;;;13.70;57.82;102681.66;5005472;28;20499;-81
2022/05/08 09:31:12;;;;;;;12.57;2.95;;;;;;;13.86;58.04;102679.50;5014289;28;20034;-79
2022/05/08 09:33:48;;;;;;;13.52;2.67;;;;;;;13.98;61.16;102681.16;4991808;28;20034;-77
2022/05/08 09:36:21;;;;;;;15.80;2.97;;;;;;;14.22;60.89;102680.16;4981245;28;20069;-78
2022/05/08 09:38:48;;;;;;;18.77;3.03;;;;;;;14.58;65.00;102678.19;4979341;28;20434;-78
2022/05/08 09:41:18;;;;;;;11.32;2.58;;;;;;;14.35;58.69;102683.50;5009034;28;20095;-79
2022/05/08 09:43:43;;;;;;;14.93;2.47;;;;;;;14.57;57.32;102676.50;4983960;28;20561;-79
2022/05/08 09:46:09;;;;;;;9.60;2.25;;;;;;;14.85;61.93;102687.44;4990852;28;20129;-76
2022/05/08 09:48:36;;;;;;;14.07;2.78;;;;;;;15.01;53.94;102679.06;4989792;28;20031;-77
2022/05/08 09:51:04;;;;;;;10.38;2.85;;;;;;;14.95;53.38;102678.59;5006335;28;20037;-77
2022/05/08 09:53:31;;;;;;;11.55;3.10;;;;;;;14.90;56.05;102672.88;5012121;28;20117;-75
2022/05/08 09:55:58;;;;;;;16.55;3.20;;;;;;;14.68;54.83;102676.47;5007909;28;20060;-76
2022/05/08 09:58:24;;;;;;;16.35;3.22;;;;;;;14.35;54.85;102675.59;4995957;28;20026;-78
2022/05/08 10:00:51;;;;;;;16.90;3.08;;;;;;;14.71;57.93;102676.22;4994789;28;20120;-77
2022/05/08 10:03:18;;;;;;;10.93;2.97;;;;;;;15.02;55.49;102675.47;4977771;28;20029;-78
2022/05/08 10:05:45;;;;;;;12.30;2.75;;;;;;;15.22;57.06;102679.91;5001807;28;20038;-80
2022/05/08 10:08:16;;;;;;;12.90;2.63;;;;;;;15.05;54.01;102667.25;5001971;28;20480;-78
2022/05/08 10:14:06;;;;;;;11.80;2.83;;;;;;;15.32;54.07;102678.16;5003782;28;20121;-79
2022/05/08 10:16:55;;;;;;;15.73;2.70;;;;;;;15.50;55.25;102682.84;4977146;28;20097;-75
2022/05/08 10:19:27;;;;;;;18.13;2.90;;;;;;;15.44;55.30;102678.06;5004384;28;20036;-78
2022/05/08 10:24:51;;;;;;;15.55;2.65;;;;;;;15.84;50.19;102672.88;5006025;28;20041;-76
2022/05/08 10:27:31;;;;;;;11.45;2.60;;;;;;;15.79;52.97;102677.72;5002646;28;20099;-76
2022/05/08 10:29:57;;;;;;;14.23;2.97;;;;;;;16.12;51.88;102675.72;5010693;28;20072;-77
2022/05/08 10:32:28;;;;;;;15.45;2.83;;;;;;;15.90;49.29;102680.25;5013245;28;20045;-78
2022/05/08 10:35:03;;;;;;;13.65;2.83;;;;;;;16.09;52.51;102682.13;4994340;28;20077;-78
2022/05/08 10:37:30;;;;;;;15.13;2.83;;;;;;;16.36;50.98;102675.34;4994529;28;20140;-75
2022/05/08 10:39:56;;;;;;;14.20;2.40;;;;;;;16.24;50.13;102672.00;4990963;28;20034;-78
2022/05/08 10:42:29;;;;;;;10.27;2.33;;;;;;;16.22;48.04;102673.06;4994122;28;20091;-78
2022/05/08 10:44:56;;;;;;;19.13;2.80;;;;;;;16.11;49.68;102666.13;5007397;28;20084;-81
2022/05/08 10:47:34;;;;;;;14.95;2.80;;;;;;;16.45;48.76;102671.88;5010555;28;20105;-79
2022/05/08 10:50:09;;;;;;;18.45;3.13;;;;;;;16.51;47.00;102676.59;4992700;28;20050;-79
2022/05/08 10:52:46;;;;;;;14.15;2.92;;;;;;;16.22;47.20;102671.28;4984169;28;20037;-76
2022/05/08 10:55:14;;;;;;;12.52;2.70;;;;;;;16.39;47.77;102675.06;5006229;28;20045;-79
2022/05/08 10:57:42;;;;;;;14.38;2.83;;;;;;;15.92;48.15;102674.84;4988369;28;20042;-78
2022/05/08 11:00:10;;;;;;;17.58;2.85;;;;;;;16.00;47.42;102667.06;4993850;28;20073;-78
2022/05/08 11:02:51;;;;;;;13.45;2.72;;;;;;;16.07;48.34;102670.00;4989053;28;20034;-78
2022/05/08 11:05:20;;;;;;;15.75;2.88;;;;;;;16.09;49.06;102678.66;5001149;28;20030;-79
2022/05/08 11:07:57;;;;;;;13.88;2.70;;;;;;;16.18;50.56;102672.53;4989539;28;20025;-80
2022/05/08 11:10:22;;;;;;;12.55;2.63;;;;;;;16.81;47.36;102677.44;5009808;28;20146;-76
2022/05/08 11:12:55;;;;;;;11.43;2.55;;;;;;;16.69;46.62;102671.47;5004412;28;20678;-80
2022/05/08 11:15:20;;;;;;;12.57;2.78;;;;;;;16.32;46.57;102676.59;4992728;28;20052;-79
2022/05/08 11:18:15;;;;;;;15.50;3.17;;;;;;;16.90;49.51;102681.09;4991070;28;20125;-77
2022/05/08 11:20:50;;;;;;;13.77;2.78;;;;;;;16.83;47.02;102678.16;4999546;28;20104;-76
2022/05/08 11:23:18;;;;;;;14.68;2.88;;;;;;;17.22;47.96;102667.50;5003130;28;20041;-80
2022/05/08 11:25:49;;;;;;;18.77;3.53;;;;;;;17.20;46.54;102666.00;5008863;28;20113;-77
2022/05/08 11:28:18;;;;;;;14.98;3.42;;;;;;;17.05;46.65;102662.94;5008968;28;20720;-78
2022/05/08 11:30:46;;;;;;;14.85;3.00;;;;;;;17.16;47.13;102664.59;4989280;28;20042;-77
2022/05/08 11:36:09;;;;;;;13.43;2.78;;;;;;;17.58;45.98;102662.38;4989521;28;20381;-77
2022/05/08 11:38:44;;;;;;;17.23;2.90;;;;;;;17.47;43.81;102658.06;5007865;28;20487;-79
2022/05/08 11:41:37;;;;;;;14.30;2.83;;;;;;;17.37;46.66;102659.94;5008935;28;20121;-76
2022/05/08 11:44:15;;;;;;;14.50;2.95;;;;;;;17.90;47.01;102661.13;4992434;28;20041;-74